createdAt,value
2019-03-19T00:01:45.032Z,4.72
2019-03-19T00:04:48.364Z,4.69
2019-03-19T00:07:51.707Z,4.66
2019-03-19T00:10:55.039Z,4.62
2019-03-19T00:13:58.333Z,4.86
2019-03-19T00:17:01.689Z,4.59
2019-03-19T00:20:08.365Z,4.59
2019-03-19T00:23:11.708Z,4.51
2019-03-19T00:26:15.029Z,4.67
2019-03-19T00:29:18.397Z,4.91
2019-03-19T00:32:21.738Z,4.98
2019-03-19T00:35:25.074Z,5.03
2019-03-19T00:38:28.387Z,5.10
2019-03-19T00:41:31.770Z,4.95
2019-03-19T00:44:35.073Z,4.97
2019-03-19T00:47:38.417Z,4.85
2019-03-19T00:50:41.753Z,4.80
2019-03-19T00:53:45.085Z,4.72
2019-03-19T00:56:48.411Z,4.69
2019-03-19T00:59:51.721Z,4.75
2019-03-19T01:02:55.047Z,4.70
2019-03-19T01:05:58.370Z,4.49
2019-03-19T01:09:01.668Z,4.67
2019-03-19T01:12:05.003Z,4.64
2019-03-19T01:15:13.036Z,4.68
2019-03-19T01:18:16.357Z,4.63
2019-03-19T01:21:19.659Z,4.60
2019-03-19T01:24:22.970Z,4.55
2019-03-19T01:27:26.284Z,4.46
2019-03-19T01:30:29.613Z,4.40
2019-03-19T01:33:32.922Z,4.27
2019-03-19T01:36:36.250Z,4.13
2019-03-19T01:39:39.542Z,4.17
2019-03-19T01:42:42.868Z,4.34
2019-03-19T01:45:46.156Z,4.07
2019-03-19T01:48:49.481Z,3.92
2019-03-19T01:51:52.792Z,4.09
2019-03-19T01:54:56.083Z,4.01
2019-03-19T01:57:59.419Z,3.71
2019-03-19T02:01:02.727Z,3.61
2019-03-19T02:04:06.030Z,3.61
2019-03-19T02:07:09.340Z,3.59
2019-03-19T02:10:15.619Z,3.52
2019-03-19T02:13:18.956Z,3.47
2019-03-19T02:16:22.290Z,3.83
2019-03-19T02:19:25.692Z,3.71
2019-03-19T02:22:29.005Z,3.63
2019-03-19T02:25:32.297Z,3.77
2019-03-19T02:28:35.694Z,3.75
2019-03-19T02:31:39.042Z,3.78
2019-03-19T02:34:42.324Z,3.73
2019-03-19T02:37:45.639Z,3.55
2019-03-19T02:40:48.940Z,3.60
2019-03-19T02:43:52.283Z,3.47
2019-03-19T02:46:55.571Z,3.53
2019-03-19T02:49:58.897Z,3.39
2019-03-19T02:53:02.216Z,3.32
2019-03-19T02:56:05.599Z,3.39
2019-03-19T02:59:08.931Z,3.23
2019-03-19T03:02:12.236Z,3.29
2019-03-19T03:05:19.578Z,3.41
2019-03-19T03:08:22.916Z,3.21
2019-03-19T03:11:26.218Z,3.19
2019-03-19T03:14:29.545Z,3.18
2019-03-19T03:17:32.872Z,2.91
2019-03-19T03:20:36.175Z,2.84
2019-03-19T03:23:39.505Z,3.15
2019-03-19T03:26:48.093Z,3.34
2019-03-19T03:29:47.954Z,3.15
2019-03-19T03:32:51.325Z,3.06
2019-03-19T03:35:54.653Z,3.20
2019-03-19T03:38:57.977Z,3.16
2019-03-19T03:42:01.303Z,2.93
2019-03-19T03:45:07.679Z,2.91
2019-03-19T03:48:10.979Z,3.13
2019-03-19T03:51:14.295Z,3.13
2019-03-19T03:54:17.613Z,3.03
2019-03-19T03:57:20.925Z,2.95
2019-03-19T04:00:24.515Z,3.11
2019-03-19T04:03:27.831Z,3.14
2019-03-19T04:06:31.150Z,3.01
2019-03-19T04:09:34.459Z,3.00
2019-03-19T04:12:37.754Z,3.00
2019-03-19T04:15:41.138Z,3.07
2019-03-19T04:18:44.443Z,3.25
2019-03-19T04:21:47.761Z,3.10
2019-03-19T04:24:51.078Z,3.22
2019-03-19T04:27:54.391Z,3.26
2019-03-19T04:30:57.703Z,3.26
2019-03-19T04:34:01.029Z,3.44
2019-03-19T04:37:04.343Z,3.30
2019-03-19T04:40:10.876Z,3.47
2019-03-19T04:43:14.268Z,3.41
2019-03-19T04:46:17.591Z,3.37
2019-03-19T04:49:20.885Z,3.33
2019-03-19T04:52:24.218Z,3.54
2019-03-19T04:55:27.513Z,3.51
2019-03-19T04:58:30.807Z,3.79
2019-03-19T05:01:34.141Z,3.71
2019-03-19T05:04:37.451Z,3.67
2019-03-19T05:07:40.777Z,3.80
2019-03-19T05:10:44.088Z,3.81
2019-03-19T05:13:47.386Z,3.88
2019-03-19T05:16:50.701Z,3.87
2019-03-19T05:19:54.019Z,3.68
2019-03-19T05:22:57.346Z,3.53
2019-03-19T05:26:00.681Z,3.57
2019-03-19T05:29:03.970Z,3.67
2019-03-19T05:32:07.292Z,3.38
2019-03-19T05:35:10.596Z,3.73
2019-03-19T05:38:13.916Z,3.97
2019-03-19T05:41:17.255Z,3.79
2019-03-19T05:44:20.552Z,3.78
2019-03-19T05:47:23.947Z,3.84
2019-03-19T05:50:27.265Z,3.69
2019-03-19T05:53:30.583Z,3.82
2019-03-19T05:56:33.894Z,3.81
2019-03-19T05:59:37.191Z,4.07
2019-03-19T06:02:40.523Z,4.01
2019-03-19T06:05:44.028Z,3.84
2019-03-19T06:08:47.248Z,4.05
2019-03-19T06:11:52.425Z,4.00
2019-03-19T06:14:55.730Z,4.04
2019-03-19T06:17:59.101Z,4.18
2019-03-19T06:21:02.437Z,4.24
2019-03-19T06:24:05.759Z,4.76
2019-03-19T06:27:09.069Z,5.00
2019-03-19T06:30:17.391Z,5.04
2019-03-19T06:33:20.706Z,5.30
2019-03-19T06:36:24.023Z,5.28
2019-03-19T06:39:27.403Z,5.11
2019-03-19T06:42:30.707Z,5.33
2019-03-19T06:45:34.025Z,5.11
2019-03-19T06:48:37.325Z,4.89
2019-03-19T06:51:40.653Z,5.07
2019-03-19T06:54:43.961Z,4.89
2019-03-19T06:57:47.285Z,5.11
2019-03-19T07:00:50.592Z,5.47
2019-03-19T07:03:55.552Z,5.73
2019-03-19T07:06:58.893Z,6.36
2019-03-19T07:10:02.248Z,6.90
2019-03-19T07:13:05.542Z,6.98
2019-03-19T07:16:08.843Z,6.95
2019-03-19T07:19:12.164Z,6.65
2019-03-19T07:22:15.482Z,6.84
2019-03-19T07:25:18.795Z,6.64
2019-03-19T07:28:22.613Z,7.07
2019-03-19T07:31:30.871Z,7.63
2019-03-19T07:34:30.945Z,8.22
2019-03-19T07:37:34.242Z,10.04
2019-03-19T07:40:37.576Z,11.28
2019-03-19T07:43:40.882Z,13.12
2019-03-19T07:46:45.967Z,13.35
2019-03-19T07:49:49.420Z,13.41
2019-03-19T07:52:52.794Z,12.73
2019-03-19T07:55:56.163Z,12.09
2019-03-19T07:58:59.470Z,10.69
2019-03-19T08:02:02.861Z,11.54
2019-03-19T08:05:08.809Z,12.84
2019-03-19T08:08:12.125Z,13.41
2019-03-19T08:11:16.760Z,13.54
2019-03-19T08:14:20.499Z,14.45
2019-03-19T08:17:23.813Z,14.14
2019-03-19T08:20:27.132Z,14.18
2019-03-19T08:23:30.481Z,13.79
2019-03-19T08:26:33.775Z,12.92
2019-03-19T08:29:37.074Z,11.96
2019-03-19T08:32:40.414Z,11.40
2019-03-19T08:35:43.731Z,11.29
2019-03-19T08:38:47.110Z,11.76
2019-03-19T08:41:50.448Z,12.25
2019-03-19T08:44:53.954Z,14.14
2019-03-19T08:47:57.570Z,13.56
2019-03-19T08:51:01.398Z,13.43
2019-03-19T08:54:04.706Z,13.43
2019-03-19T08:57:08.039Z,12.43
2019-03-19T09:00:19.260Z,11.77
2019-03-19T09:03:22.578Z,10.80
2019-03-19T09:06:25.882Z,9.98
2019-03-19T09:09:32.020Z,8.89
2019-03-19T09:12:35.550Z,7.92
2019-03-19T09:15:38.839Z,7.21
2019-03-19T09:18:42.146Z,7.05
2019-03-19T09:21:45.464Z,7.72
2019-03-19T09:24:48.798Z,7.61
2019-03-19T09:27:52.109Z,7.42
2019-03-19T09:30:55.406Z,6.93
2019-03-19T09:33:58.732Z,6.37
2019-03-19T09:37:02.055Z,6.26
2019-03-19T09:40:08.850Z,6.22
2019-03-19T09:43:12.168Z,6.01
2019-03-19T09:46:15.469Z,6.33
2019-03-19T09:49:21.032Z,6.51
2019-03-19T09:52:23.831Z,6.77
2019-03-19T09:55:27.134Z,7.16
2019-03-19T09:58:30.472Z,8.13
2019-03-19T10:01:33.753Z,9.46
2019-03-19T10:04:37.064Z,10.72
2019-03-19T10:07:40.377Z,11.06
2019-03-19T10:10:43.724Z,11.52
2019-03-19T10:13:47.097Z,11.13
2019-03-19T10:16:50.399Z,11.28
2019-03-19T10:19:53.761Z,12.21
2019-03-19T10:22:57.101Z,12.78
2019-03-19T10:26:00.415Z,12.80
2019-03-19T10:29:03.749Z,12.69
2019-03-19T10:32:07.046Z,12.06
2019-03-19T10:35:10.377Z,11.45
2019-03-19T10:38:13.681Z,10.86
2019-03-19T10:41:17.001Z,11.39
2019-03-19T10:44:20.324Z,12.14
2019-03-19T10:47:23.642Z,12.51
2019-03-19T10:50:27.983Z,12.37
2019-03-19T10:53:31.334Z,13.22
2019-03-19T10:56:34.675Z,12.79
2019-03-19T10:59:48.543Z,13.76
2019-03-19T11:02:43.033Z,13.46
2019-03-19T11:05:46.349Z,14.50
2019-03-19T11:08:49.652Z,15.45
2019-03-19T11:11:52.972Z,15.19
2019-03-19T11:14:56.268Z,14.34
2019-03-19T11:17:59.564Z,12.91
2019-03-19T11:21:02.881Z,11.95
2019-03-19T11:24:06.176Z,11.16
2019-03-19T11:27:09.496Z,10.49
2019-03-19T11:30:24.002Z,10.15
2019-03-19T11:33:27.447Z,9.59
2019-03-19T11:36:30.820Z,9.40
2019-03-19T11:39:34.122Z,9.27
2019-03-19T11:42:37.431Z,9.17
2019-03-19T11:45:40.811Z,8.69
2019-03-19T11:48:44.348Z,8.68
2019-03-19T11:51:47.680Z,8.27
2019-03-19T11:54:51.058Z,7.95
2019-03-19T11:57:54.381Z,7.87
2019-03-19T12:00:59.329Z,7.71
2019-03-19T12:04:02.636Z,7.72
2019-03-19T12:07:05.941Z,7.61
2019-03-19T12:10:09.272Z,7.56
2019-03-19T12:13:12.590Z,7.60
2019-03-19T12:16:17.887Z,7.91
2019-03-19T12:19:21.170Z,8.08
2019-03-19T12:22:24.486Z,8.35
2019-03-19T12:25:27.811Z,8.03
2019-03-19T12:28:39.216Z,8.65
2019-03-19T12:31:36.277Z,8.72
2019-03-19T12:34:39.596Z,8.73
2019-03-19T12:37:42.930Z,9.58
2019-03-19T12:40:46.235Z,10.04
2019-03-19T12:43:49.533Z,10.47
2019-03-19T12:46:52.871Z,10.72
2019-03-19T12:49:56.171Z,11.13
2019-03-19T12:53:02.397Z,11.50
2019-03-19T12:56:05.686Z,11.17
2019-03-19T12:59:19.568Z,10.75
2019-03-19T13:02:14.042Z,10.80
2019-03-19T13:05:17.338Z,10.33
2019-03-19T13:08:20.695Z,10.07
2019-03-19T13:11:23.987Z,9.47
2019-03-19T13:14:27.306Z,9.15
2019-03-19T13:17:30.605Z,8.51
2019-03-19T13:20:33.953Z,8.71
2019-03-19T13:23:37.391Z,8.83
2019-03-19T13:26:40.699Z,8.78
2019-03-19T13:29:44.004Z,9.18
2019-03-19T13:32:47.304Z,9.52
2019-03-19T13:35:50.618Z,10.28
2019-03-19T13:38:53.944Z,10.18
2019-03-19T13:41:57.223Z,9.85
2019-03-19T13:45:00.564Z,9.59
2019-03-19T13:48:03.869Z,9.34
2019-03-19T13:51:07.187Z,9.19
2019-03-19T13:54:10.481Z,9.19
2019-03-19T13:57:13.776Z,9.28
2019-03-19T14:00:17.744Z,8.89
2019-03-19T14:03:21.065Z,9.27
2019-03-19T14:06:26.023Z,9.46
2019-03-19T14:09:29.316Z,9.77
2019-03-19T14:12:32.615Z,9.25
2019-03-19T14:15:35.921Z,9.11
2019-03-19T14:18:39.332Z,9.43
2019-03-19T14:21:42.655Z,9.39
2019-03-19T14:24:45.999Z,9.43
2019-03-19T14:27:49.299Z,9.34
2019-03-19T14:30:52.618Z,9.49
2019-03-19T14:33:55.907Z,9.43
2019-03-19T14:36:59.226Z,9.35
2019-03-19T14:40:02.558Z,9.37
2019-03-19T14:43:05.850Z,9.43
2019-03-19T14:46:09.189Z,9.57
2019-03-19T14:49:12.487Z,9.44
2019-03-19T14:52:15.826Z,9.47
2019-03-19T14:55:19.216Z,9.36
2019-03-19T14:58:22.471Z,9.32
2019-03-19T15:01:25.796Z,9.25
2019-03-19T15:04:29.069Z,9.00
2019-03-19T15:07:32.391Z,8.91
2019-03-19T15:10:35.713Z,8.94
2019-03-19T15:13:39.032Z,8.84
2019-03-19T15:16:42.342Z,8.85
2019-03-19T15:19:45.634Z,8.93
2019-03-19T15:22:48.956Z,9.00
2019-03-19T15:25:52.332Z,9.08
2019-03-19T15:28:55.628Z,9.12
2019-03-19T15:31:59.156Z,9.11
2019-03-19T15:35:02.453Z,9.08
2019-03-19T15:38:05.872Z,9.00
2019-03-19T15:41:09.173Z,9.15
2019-03-19T15:44:12.481Z,8.74
2019-03-19T15:47:15.814Z,9.05
2019-03-19T15:50:19.125Z,9.02
2019-03-19T15:53:22.461Z,8.96
2019-03-19T15:56:25.767Z,8.73
2019-03-19T15:59:29.103Z,8.50
2019-03-19T16:02:32.420Z,8.52
2019-03-19T16:05:35.717Z,8.41
2019-03-19T16:08:39.049Z,8.33
2019-03-19T16:11:42.351Z,8.46
2019-03-19T16:14:45.630Z,8.51
2019-03-19T16:17:48.946Z,8.46
2019-03-19T16:20:52.225Z,8.52
2019-03-19T16:23:55.539Z,8.46
2019-03-19T16:26:58.879Z,8.36
2019-03-19T16:30:02.184Z,8.41
2019-03-19T16:33:05.485Z,8.28
2019-03-19T16:36:08.836Z,8.29
2019-03-19T16:39:12.123Z,8.25
2019-03-19T16:42:15.466Z,8.30
2019-03-19T16:45:18.872Z,8.15
2019-03-19T16:48:22.161Z,8.17
2019-03-19T16:51:25.463Z,8.09
2019-03-19T16:54:28.765Z,7.98
2019-03-19T16:57:32.070Z,8.04
2019-03-19T17:00:35.375Z,8.16
2019-03-19T17:03:39.239Z,8.10
2019-03-19T17:06:42.547Z,8.03
2019-03-19T17:09:45.862Z,7.87
2019-03-19T17:12:49.168Z,7.86
2019-03-19T17:15:52.700Z,7.83
2019-03-19T17:18:56.058Z,7.79
2019-03-19T17:21:59.364Z,7.73
2019-03-19T17:25:02.697Z,7.71
2019-03-19T17:28:06.005Z,7.73
2019-03-19T17:31:09.339Z,7.81
2019-03-19T17:34:12.659Z,7.84
2019-03-19T17:37:15.975Z,7.96
2019-03-19T17:40:19.299Z,7.82
2019-03-19T17:43:22.596Z,7.85
2019-03-19T17:46:25.921Z,7.79
2019-03-19T17:49:29.235Z,7.76
2019-03-19T17:52:32.615Z,7.71
2019-03-19T17:55:35.946Z,7.66
2019-03-19T17:58:39.259Z,7.62
2019-03-19T18:01:42.741Z,7.61
2019-03-19T18:04:46.037Z,7.67
2019-03-19T18:07:49.417Z,7.61
2019-03-19T18:10:52.721Z,7.44
2019-03-19T18:13:56.033Z,7.57
2019-03-19T18:16:59.339Z,7.55
2019-03-19T18:20:03.125Z,7.54
2019-03-19T18:23:06.444Z,7.44
2019-03-19T18:26:09.780Z,7.48
2019-03-19T18:29:13.316Z,7.35
2019-03-19T18:32:16.645Z,7.48
2019-03-19T18:35:20.006Z,7.30
2019-03-19T18:38:23.341Z,7.32
2019-03-19T18:41:26.702Z,7.32
2019-03-19T18:44:30.037Z,7.20
2019-03-19T18:47:33.383Z,7.22
2019-03-19T18:50:36.715Z,7.08
2019-03-19T18:53:40.091Z,7.09
2019-03-19T18:56:43.471Z,7.14
2019-03-19T18:59:46.828Z,7.12
2019-03-19T19:02:54.327Z,7.02
2019-03-19T19:06:01.523Z,7.10
2019-03-19T19:09:07.414Z,7.08
2019-03-19T19:12:10.710Z,6.96
2019-03-19T19:15:22.146Z,6.68
2019-03-19T19:18:25.442Z,6.77
2019-03-19T19:21:28.867Z,6.84
2019-03-19T19:24:32.140Z,6.76
2019-03-19T19:27:35.493Z,6.87
2019-03-19T19:30:38.800Z,6.79
2019-03-19T19:33:42.140Z,6.81
2019-03-19T19:36:45.509Z,6.68
2019-03-19T19:39:48.831Z,6.70
2019-03-19T19:42:52.155Z,6.75
2019-03-19T19:45:55.505Z,7.08
2019-03-19T19:48:58.884Z,7.13
2019-03-19T19:52:02.143Z,6.94
2019-03-19T19:55:07.341Z,6.87
2019-03-19T19:58:10.933Z,6.66
2019-03-19T20:01:14.256Z,6.66
2019-03-19T20:04:17.673Z,6.73
2019-03-19T20:07:21.023Z,6.68
2019-03-19T20:10:26.740Z,6.55
2019-03-19T20:13:30.387Z,6.58
2019-03-19T20:16:33.685Z,6.65
2019-03-19T20:19:37.010Z,6.77
2019-03-19T20:22:40.519Z,6.76
2019-03-19T20:25:43.869Z,6.75
2019-03-19T20:28:47.215Z,6.67
2019-03-19T20:31:50.639Z,6.61
2019-03-19T20:34:53.969Z,6.82
2019-03-19T20:37:57.285Z,6.64
2019-03-19T20:41:00.713Z,6.55
2019-03-19T20:44:04.045Z,6.71
2019-03-19T20:47:07.374Z,6.64
2019-03-19T20:50:13.689Z,6.53
2019-03-19T20:53:17.031Z,6.46
2019-03-19T20:56:20.429Z,6.40
2019-03-19T20:59:23.741Z,6.36
2019-03-19T21:02:27.268Z,6.52
2019-03-19T21:05:30.630Z,6.50
2019-03-19T21:08:33.939Z,6.45
2019-03-19T21:11:37.390Z,6.48
2019-03-19T21:17:57.391Z,6.67
2019-03-19T21:21:00.763Z,6.58
2019-03-19T21:24:04.146Z,6.45
2019-03-19T21:27:07.426Z,6.62
2019-03-19T21:30:18.812Z,6.71
2019-03-19T21:33:22.142Z,6.87
2019-03-19T21:36:25.546Z,6.75
2019-03-19T21:39:28.964Z,6.61
2019-03-19T21:42:32.624Z,6.46
2019-03-19T21:45:36.032Z,6.37
2019-03-19T21:48:39.413Z,6.12
2019-03-19T21:51:43.132Z,5.95
2019-03-19T21:54:46.563Z,6.05
2019-03-19T21:57:49.876Z,6.11
2019-03-19T22:00:53.225Z,6.05
2019-03-19T22:04:02.954Z,5.96
2019-03-19T22:07:01.726Z,5.86
2019-03-19T22:10:14.528Z,5.78
2019-03-19T22:13:17.891Z,5.82
2019-03-19T22:16:21.227Z,5.75
2019-03-19T22:19:24.575Z,5.58
2019-03-19T22:22:27.967Z,5.55
2019-03-19T22:25:31.373Z,5.67
2019-03-19T22:28:34.681Z,5.73
2019-03-19T22:31:38.005Z,5.46
2019-03-19T22:34:41.391Z,5.43
2019-03-19T22:37:44.884Z,5.19
2019-03-19T22:40:48.216Z,5.40
2019-03-19T22:43:54.412Z,5.32
2019-03-19T22:46:57.914Z,5.29
2019-03-19T22:50:01.301Z,5.23
2019-03-19T22:53:04.583Z,5.09
2019-03-19T22:56:07.897Z,5.03
2019-03-19T22:59:11.191Z,4.93
2019-03-19T23:02:14.593Z,4.90
2019-03-19T23:05:17.910Z,4.84
2019-03-19T23:08:21.214Z,4.86
2019-03-19T23:11:24.532Z,4.74
2019-03-19T23:14:27.819Z,4.82
2019-03-19T23:17:31.132Z,4.76
2019-03-19T23:20:34.439Z,4.87
2019-03-19T23:23:37.784Z,4.81
2019-03-19T23:26:41.202Z,4.80
2019-03-19T23:29:44.498Z,4.69
2019-03-19T23:32:47.814Z,4.61
2019-03-19T23:35:51.192Z,4.63
2019-03-19T23:38:54.493Z,4.62
2019-03-19T23:41:57.810Z,4.66
2019-03-19T23:45:01.117Z,4.63
2019-03-19T23:48:04.441Z,4.68
2019-03-19T23:51:07.769Z,4.71
2019-03-19T23:54:11.063Z,4.52
2019-03-19T23:57:14.582Z,4.53
